Time;durP1;ratioP1;P1;durP2;ratioP2;P2;SDS_P1;SDS_P2;PMS_P1;PMS_P2;Temp;Humidity;BMP_temperature;BMP_pressure;BME280_temperature;BME280_humidity;BME280_pressure;Samples;Min_cycle;Max_cycle;Signal;HPM_P1;HPM_P2
2022/12/06 00:01:42;;;;;;;2.50;1.13;;;;;;;1.09;69.77;101857.38;5091875;28;20043;-69
2022/12/06 00:04:11;;;;;;;3.67;1.00;;;;;;;1.06;69.72;101846.09;5096172;28;20044;-69
2022/12/06 00:06:42;;;;;;;2.17;1.10;;;;;;;1.01;69.49;101833.06;5093954;27;20047;-68
2022/12/06 00:09:15;;;;;;;2.30;1.02;;;;;;;1.06;69.75;101846.97;5095612;28;20046;-69
2022/12/06 00:11:42;;;;;;;1.15;0.85;;;;;;;1.06;69.04;101840.97;5090230;28;20135;-69
2022/12/06 00:14:11;;;;;;;2.22;1.27;;;;;;;1.05;69.83;101839.19;5093600;28;20036;-68
2022/12/06 00:16:38;;;;;;;1.73;1.00;;;;;;;1.04;68.71;101833.16;5095638;28;20062;-69
2022/12/06 00:19:05;;;;;;;1.75;1.08;;;;;;;1.04;69.75;101832.31;5094606;28;20048;-68
2022/12/06 00:21:35;;;;;;;1.73;0.80;;;;;;;1.04;69.03;101827.16;5095428;27;20044;-69
2022/12/06 00:24:05;;;;;;;2.35;1.15;;;;;;;1.03;69.19;101826.28;5093569;27;20042;-69
2022/12/06 00:26:35;;;;;;;1.25;0.70;;;;;;;1.03;69.53;101826.28;5090245;28;20055;-69
2022/12/06 00:29:03;;;;;;;2.63;1.30;;;;;;;1.03;69.29;101821.13;5090974;28;20040;-68
2022/12/06 00:31:31;;;;;;;2.25;0.90;;;;;;;1.03;69.07;101830.56;5096981;28;20051;-69
2022/12/06 00:33:59;;;;;;;2.55;0.93;;;;;;;1.02;69.19;101821.94;5096635;27;20051;-68
2022/12/06 00:36:27;;;;;;;3.03;1.27;;;;;;;0.91;68.95;101797.50;5090586;28;20122;-69
2022/12/06 00:38:55;;;;;;;0.88;0.60;;;;;;;1.00;69.12;101810.72;5093530;28;20039;-68
2022/12/06 00:41:24;;;;;;;1.30;0.85;;;;;;;1.00;68.88;101802.16;5092291;28;20043;-69
2022/12/06 00:43:52;;;;;;;1.95;0.88;;;;;;;0.98;68.92;101791.78;5092786;28;20533;-69
2022/12/06 00:46:21;;;;;;;2.28;1.40;;;;;;;0.99;68.71;101792.66;5094399;28;20050;-68
2022/12/06 00:48:49;;;;;;;3.40;0.73;;;;;;;0.98;69.31;101786.63;5088730;28;20055;-69
2022/12/06 00:51:18;;;;;;;2.53;0.70;;;;;;;0.97;68.54;101782.31;5091468;28;20047;-68
2022/12/06 00:53:45;;;;;;;3.75;1.05;;;;;;;0.97;68.96;101779.75;5093117;28;20046;-69
2022/12/06 00:56:12;;;;;;;2.45;0.82;;;;;;;0.96;68.92;101762.53;5093593;28;20074;-69
2022/12/06 00:58:41;;;;;;;0.77;0.60;;;;;;;0.96;68.61;101752.25;5095759;28;20047;-69
2022/12/06 01:01:09;;;;;;;1.17;0.63;;;;;;;0.90;68.88;101745.19;5089879;28;20047;-68
2022/12/06 01:03:36;;;;;;;1.08;0.40;;;;;;;0.90;68.63;101741.75;5090795;28;20070;-69
2022/12/06 01:06:05;;;;;;;1.13;0.60;;;;;;;0.94;68.70;101745.28;5091688;28;20079;-70
2022/12/06 01:08:32;;;;;;;0.98;0.40;;;;;;;0.88;68.04;101731.41;5095624;28;20040;-68
2022/12/06 01:10:59;;;;;;;1.15;0.70;;;;;;;0.92;67.79;101737.53;5093224;28;20036;-69
2022/12/06 01:13:26;;;;;;;0.90;0.50;;;;;;;0.89;68.19;101740.88;5092114;28;20102;-69
2022/12/06 01:15:54;;;;;;;0.98;0.30;;;;;;;0.85;67.87;101727.84;5091540;28;20180;-69
2022/12/06 01:18:21;;;;;;;0.70;0.40;;;;;;;0.88;67.76;101733.09;5094002;28;20097;-68
2022/12/06 01:20:48;;;;;;;0.80;0.40;;;;;;;0.86;67.81;101724.47;5096875;28;20051;-69
2022/12/06 01:23:15;;;;;;;0.80;0.40;;;;;;;0.85;67.59;101732.97;5093563;28;20732;-69
2022/12/06 01:25:50;;;;;;;1.08;0.50;;;;;;;0.85;67.61;101727.84;5096409;28;20743;-68
2022/12/06 01:28:17;;;;;;;0.95;0.32;;;;;;;0.83;68.42;101721.78;5093368;28;20749;-68
2022/12/06 01:30:43;;;;;;;0.90;0.75;;;;;;;0.83;68.18;101726.91;5092564;28;20056;-69
2022/12/06 01:33:11;;;;;;;0.50;0.50;;;;;;;0.80;68.25;101719.09;5096843;28;20127;-69
2022/12/06 01:35:40;;;;;;;1.02;0.38;;;;;;;0.77;67.28;101714.72;5093488;28;20039;-69
2022/12/06 01:38:07;;;;;;;0.32;0.30;;;;;;;0.76;66.99;101701.78;5091219;28;20127;-69
2022/12/06 01:40:38;;;;;;;2.53;0.40;;;;;;;0.75;67.99;101705.19;5094506;28;20043;-69
2022/12/06 01:43:06;;;;;;;0.90;0.40;;;;;;;0.73;67.95;101702.53;5092186;28;20138;-69
2022/12/06 01:45:33;;;;;;;0.98;0.50;;;;;;;0.73;67.19;101692.25;5095984;28;20094;-69
2022/12/06 01:48:00;;;;;;;0.93;0.38;;;;;;;0.70;67.48;101697.28;5095503;28;20035;-69
2022/12/06 01:50:31;;;;;;;3.90;0.35;;;;;;;0.68;67.20;101696.34;5094833;28;20065;-68
2022/12/06 01:53:03;;;;;;;0.98;0.40;;;;;;;0.58;67.06;101672.00;5091448;28;20043;-69
2022/12/06 01:55:34;;;;;;;0.68;0.32;;;;;;;0.60;66.67;101670.38;5094977;28;20629;-69
2022/12/06 01:58:04;;;;;;;0.70;0.40;;;;;;;0.62;66.98;101670.41;5093999;28;20448;-68
2022/12/06 02:00:31;;;;;;;0.75;0.43;;;;;;;0.61;67.25;101664.41;5092652;28;20084;-69
2022/12/06 02:03:01;;;;;;;2.15;0.70;;;;;;;0.58;67.21;101661.72;5099801;28;20739;-69
2022/12/06 02:05:30;;;;;;;1.27;0.60;;;;;;;0.55;67.02;101658.19;5092525;28;20040;-68
2022/12/06 02:08:00;;;;;;;1.38;0.65;;;;;;;0.47;67.33;101642.47;5087982;28;20039;-69
2022/12/06 02:10:28;;;;;;;1.15;0.50;;;;;;;0.53;67.43;101663.25;5094376;28;20447;-68
2022/12/06 02:12:56;;;;;;;2.63;0.50;;;;;;;0.38;66.67;101644.72;5090796;28;20505;-68
2022/12/06 02:15:38;;;;;;;1.10;0.50;;;;;;;0.48;66.51;101658.75;5092988;28;20040;-69
2022/12/06 02:18:12;;;;;;;2.25;1.10;;;;;;;0.48;66.45;101663.91;5090445;28;20992;-69
2022/12/06 02:20:45;;;;;;;1.17;0.70;;;;;;;0.40;66.59;101646.53;5094389;28;20044;-68
2022/12/06 02:23:36;;;;;;;4.25;0.70;;;;;;;0.40;66.74;101651.66;5093592;28;20410;-69
2022/12/06 02:26:26;;;;;;;1.58;0.82;;;;;;;0.40;66.65;101645.66;5091939;28;20089;-68
2022/12/06 02:29:47;;;;;;;3.47;0.85;;;;;;;0.37;67.24;101645.50;5091397;28;20097;-69
2022/12/06 02:32:19;;;;;;;4.30;0.93;;;;;;;0.33;67.36;101643.66;5067880;28;20047;-69
2022/12/06 02:34:56;;;;;;;2.65;0.90;;;;;;;0.30;66.62;101648.69;5091085;28;20101;-69
2022/12/06 02:37:29;;;;;;;2.10;1.20;;;;;;;0.28;66.96;101638.34;5092282;28;20097;-68
2022/12/06 02:40:00;;;;;;;1.35;0.88;;;;;;;0.26;66.57;101646.78;5093947;28;20475;-68
2022/12/06 02:42:33;;;;;;;3.25;0.82;;;;;;;0.24;66.40;101638.19;5092968;28;20093;-68
2022/12/06 02:45:04;;;;;;;2.10;0.85;;;;;;;0.20;66.74;101622.66;5094489;28;20441;-69
2022/12/06 02:47:36;;;;;;;2.00;0.70;;;;;;;0.07;67.30;101612.72;5093828;28;20093;-69
2022/12/06 02:50:08;;;;;;;1.27;0.80;;;;;;;0.13;66.91;101624.94;5094317;28;20056;-69
2022/12/06 02:52:39;;;;;;;2.85;0.75;;;;;;;0.09;66.82;101618.81;5094747;28;20452;-69
2022/12/06 02:55:08;;;;;;;2.92;0.70;;;;;;;0.04;66.76;101614.31;5092097;28;20040;-69
2022/12/06 02:57:42;;;;;;;2.75;0.70;;;;;;;0.05;67.08;101605.78;5098328;28;20446;-69
2022/12/06 03:00:34;;;;;;;2.83;0.83;;;;;;;0.02;67.09;101609.09;5090833;28;20054;-69
2022/12/06 03:03:14;;;;;;;3.40;0.70;;;;;;;-0.02;67.05;101600.41;5096549;28;20506;-69
2022/12/06 03:05:51;;;;;;;1.75;0.65;;;;;;;-0.05;66.31;101602.88;5098835;28;20074;-77
2022/12/06 03:08:27;;;;;;;1.40;0.90;;;;;;;-0.07;66.96;101601.06;5110203;28;20040;-77
2022/12/06 03:11:00;;;;;;;1.48;0.70;;;;;;;-0.10;67.08;101600.94;5104968;28;20040;-77
2022/12/06 03:13:34;;;;;;;1.52;0.50;;;;;;;-0.12;66.48;101584.59;5100758;28;20635;-77
2022/12/06 03:16:06;;;;;;;1.33;0.77;;;;;;;-0.20;66.53;101581.72;5104409;28;20044;-77
2022/12/06 03:18:41;;;;;;;1.33;0.60;;;;;;;-0.22;66.70;101574.81;5109565;28;20464;-77
2022/12/06 03:21:11;;;;;;;1.65;0.60;;;;;;;-0.22;67.25;101582.50;5106608;27;20100;-77
2022/12/06 03:23:40;;;;;;;1.92;0.65;;;;;;;-0.25;67.20;101586.69;5099314;28;20097;-77
2022/12/06 03:26:13;;;;;;;2.42;0.85;;;;;;;-0.27;66.48;101588.31;5111223;27;20039;-76
2022/12/06 03:28:41;;;;;;;1.63;1.00;;;;;;;-0.32;66.97;101569.28;5107207;28;20051;-77
2022/12/06 03:31:11;;;;;;;1.45;0.80;;;;;;;-0.32;67.16;101569.28;5110839;28;20441;-77
2022/12/06 03:33:44;;;;;;;1.92;0.98;;;;;;;-0.37;67.16;101568.25;5107264;28;20502;-77
2022/12/06 03:36:13;;;;;;;2.10;0.77;;;;;;;-0.37;66.94;101575.97;5104197;28;20097;-77
2022/12/06 03:38:46;;;;;;;1.67;1.08;;;;;;;-0.40;66.80;101574.94;5105557;28;20430;-77
2022/12/06 03:41:16;;;;;;;1.73;0.88;;;;;;;-0.43;66.45;101572.25;5106825;28;20847;-77
2022/12/06 03:43:43;;;;;;;1.75;0.80;;;;;;;-0.46;66.50;101571.34;5107906;27;20085;-76
2022/12/06 03:46:14;;;;;;;1.90;0.80;;;;;;;-0.54;67.10;101552.22;5100640;28;20051;-77
2022/12/06 03:48:46;;;;;;;3.80;0.77;;;;;;;-0.58;66.76;101564.84;5110378;28;20101;-76
2022/12/06 03:51:18;;;;;;;1.98;0.70;;;;;;;-0.59;66.77;101555.41;5105479;28;20051;-76
2022/12/06 03:53:48;;;;;;;1.90;0.77;;;;;;;-0.60;66.48;101558.75;5105070;28;20116;-77
2022/12/06 03:56:15;;;;;;;2.95;0.90;;;;;;;-0.64;66.81;101549.22;5109763;27;20056;-76
2022/12/06 03:58:42;;;;;;;3.72;1.45;;;;;;;-0.68;66.91;101549.09;5104709;28;20558;-77
2022/12/06 04:01:08;;;;;;;5.93;1.05;;;;;;;-0.78;66.88;101536.69;5105777;28;20051;-77
2022/12/06 04:03:35;;;;;;;2.53;1.45;;;;;;;-0.83;66.84;101532.19;5103647;28;20043;-76
2022/12/06 04:06:04;;;;;;;2.40;0.93;;;;;;;-0.75;67.26;101554.78;5112433;27;20051;-76
2022/12/06 04:08:31;;;;;;;3.00;1.30;;;;;;;-0.78;67.12;101554.66;5104415;28;20051;-77
2022/12/06 04:10:58;;;;;;;4.43;1.13;;;;;;;-0.81;66.96;101554.53;5110748;28;20092;-77
2022/12/06 04:13:25;;;;;;;2.53;1.55;;;;;;;-0.83;66.94;101548.47;5110239;28;21159;-76
2022/12/06 04:15:55;;;;;;;2.53;1.05;;;;;;;-0.84;67.19;101541.59;5109810;28;20040;-76
2022/12/06 04:18:22;;;;;;;2.30;0.77;;;;;;;-0.88;66.87;101534.59;5105363;28;20044;-77
2022/12/06 04:23:42;;;;;;;3.28;1.25;;;;;;;-0.93;67.15;101526.72;5101598;28;20395;-77
2022/12/06 04:26:11;;;;;;;3.70;1.30;;;;;;;-1.00;67.06;101534.97;5106691;28;20497;-76
2022/12/06 04:39:38;;;;;;;4.25;1.55;;;;;;;-1.08;67.11;101520.06;5106174;27;20470;-76
2022/12/06 04:44:49;;;;;;;3.33;1.53;;;;;;;-1.10;67.26;101526.84;5102870;27;20066;-79
2022/12/06 04:47:16;;;;;;;4.90;1.88;;;;;;;-1.11;67.40;101517.38;5101698;28;20052;-76
2022/12/06 04:49:43;;;;;;;3.70;1.25;;;;;;;-1.14;66.99;101524.16;5108420;27;20092;-77
2022/12/06 04:52:11;;;;;;;1.58;0.85;;;;;;;-1.17;67.41;101515.44;5106278;28;20112;-76
2022/12/06 04:54:39;;;;;;;3.15;1.23;;;;;;;-1.19;67.09;101512.84;5106818;28;20544;-76
2022/12/06 04:57:09;;;;;;;2.85;1.42;;;;;;;-1.21;67.25;101506.75;5096517;28;20074;-76
2022/12/06 04:59:37;;;;;;;3.80;1.27;;;;;;;-1.23;67.14;101500.69;5098700;27;20044;-76
2022/12/06 05:02:04;;;;;;;2.72;1.48;;;;;;;-1.24;67.07;101498.94;5107125;28;20056;-77
2022/12/06 05:04:31;;;;;;;4.13;1.65;;;;;;;-1.28;67.82;101496.19;5101511;28;20542;-77
2022/12/06 05:06:58;;;;;;;6.43;1.63;;;;;;;-1.29;67.62;101491.88;5096239;28;20048;-77
2022/12/06 05:09:25;;;;;;;4.50;1.35;;;;;;;-1.30;67.41;101492.72;5106463;28;20043;-76
2022/12/06 05:11:53;;;;;;;5.43;1.50;;;;;;;-1.32;67.38;101489.19;5102766;28;20104;-76
2022/12/06 05:14:20;;;;;;;4.63;1.65;;;;;;;-1.37;67.35;101482.22;5099012;28;20097;-76
2022/12/06 05:16:47;;;;;;;3.17;1.17;;;;;;;-1.36;67.16;101480.50;5106226;28;20052;-76
2022/12/06 05:19:14;;;;;;;4.93;1.30;;;;;;;-1.39;67.15;101478.69;5110813;28;20047;-76
2022/12/06 05:21:41;;;;;;;3.80;1.75;;;;;;;-1.49;67.71;101461.19;5105204;28;21520;-77
2022/12/06 05:24:09;;;;;;;3.33;1.65;;;;;;;-1.44;67.38;101476.75;5108132;28;20043;-77
2022/12/06 05:26:36;;;;;;;3.58;1.90;;;;;;;-1.48;67.35;101478.31;5107035;27;20096;-77
2022/12/06 05:29:04;;;;;;;3.75;1.48;;;;;;;-1.47;67.23;101481.75;5101391;28;20048;-76
2022/12/06 05:31:31;;;;;;;2.78;1.35;;;;;;;-1.52;67.21;101475.56;5099575;28;20052;-77
2022/12/06 05:33:57;;;;;;;6.20;1.98;;;;;;;-1.51;67.49;101483.28;5094338;28;20048;-77
2022/12/06 05:36:26;;;;;;;3.45;1.25;;;;;;;-1.52;67.48;101484.13;5093805;28;20040;-76
2022/12/06 05:38:53;;;;;;;4.05;1.50;;;;;;;-1.54;67.66;101478.03;5097918;28;20121;-76
2022/12/06 05:41:22;;;;;;;2.60;1.73;;;;;;;-1.56;67.37;101468.56;5101496;28;20460;-76
2022/12/06 05:43:49;;;;;;;4.15;1.35;;;;;;;-1.59;67.39;101466.75;5099948;27;20396;-77
2022/12/06 05:46:17;;;;;;;4.22;1.50;;;;;;;-1.64;67.78;101456.31;5100845;28;20487;-77
2022/12/06 05:48:44;;;;;;;3.15;1.67;;;;;;;-1.63;67.76;101463.16;5100164;27;20052;-77
2022/12/06 05:51:11;;;;;;;3.60;1.80;;;;;;;-1.65;67.80;101464.81;5101062;28;20552;-77
2022/12/06 05:53:39;;;;;;;3.05;1.40;;;;;;;-1.66;67.48;101462.16;5104106;27;20114;-77
2022/12/06 05:56:08;;;;;;;4.45;1.30;;;;;;;-1.68;67.47;101453.53;5101579;27;20127;-76
2022/12/06 05:58:35;;;;;;;11.13;1.15;;;;;;;-1.68;67.68;101451.88;5105292;28;20052;-76
2022/12/06 06:01:02;;;;;;;4.95;1.77;;;;;;;-1.71;67.50;101456.84;5114706;27;20096;-76
2022/12/06 06:03:30;;;;;;;3.08;1.35;;;;;;;-1.72;67.81;101456.78;5101917;28;20043;-76
2022/12/06 06:05:59;;;;;;;2.38;1.10;;;;;;;-1.75;67.35;101452.41;5100622;27;20071;-76
2022/12/06 06:08:27;;;;;;;2.85;1.40;;;;;;;-1.75;67.86;101452.41;5105616;28;20039;-77
2022/12/06 06:10:54;;;;;;;3.53;1.20;;;;;;;-1.77;67.60;101445.47;5102946;27;20035;-76
2022/12/06 06:13:21;;;;;;;4.80;1.23;;;;;;;-1.80;67.97;101446.22;5099197;28;20454;-76
2022/12/06 06:15:48;;;;;;;4.03;1.30;;;;;;;-1.81;67.57;101447.91;5099357;28;20043;-77
2022/12/06 06:18:15;;;;;;;2.25;1.30;;;;;;;-1.83;67.57;101441.84;5100504;28;20048;-77
2022/12/06 06:20:49;;;;;;;3.15;1.02;;;;;;;-1.84;68.03;101437.53;5096858;28;20052;-77
2022/12/06 06:23:15;;;;;;;4.60;1.38;;;;;;;-1.85;68.03;101437.44;5099289;28;20089;-77
2022/12/06 06:25:42;;;;;;;2.78;1.40;;;;;;;-1.88;68.00;101427.09;5100940;28;20483;-77
2022/12/06 06:28:09;;;;;;;2.80;1.08;;;;;;;-1.89;67.86;101421.09;5098502;28;20074;-76
2022/12/06 06:30:36;;;;;;;5.10;1.50;;;;;;;-1.94;67.96;101416.59;5098380;28;20556;-77
2022/12/06 06:33:02;;;;;;;2.38;0.88;;;;;;;-1.92;67.62;101420.97;5097397;28;20644;-77
2022/12/06 06:35:29;;;;;;;2.05;0.90;;;;;;;-1.94;67.91;101414.03;5095586;28;20464;-77
2022/12/06 06:37:58;;;;;;;3.90;1.00;;;;;;;-1.95;67.74;101413.16;5096436;28;20056;-78
2022/12/06 06:40:25;;;;;;;2.92;1.00;;;;;;;-1.99;67.98;101416.41;5100206;28;20130;-76
2022/12/06 06:42:51;;;;;;;3.08;1.52;;;;;;;-2.00;67.99;101413.78;5098469;28;20457;-76
2022/12/06 06:45:18;;;;;;;5.88;2.15;;;;;;;-2.02;68.04;101413.72;5100961;28;20098;-76
2022/12/06 06:47:45;;;;;;;6.45;2.17;;;;;;;-2.01;67.83;101412.03;5103888;28;20043;-76
2022/12/06 06:50:12;;;;;;;10.48;2.38;;;;;;;-2.03;68.18;101410.25;5099658;28;20047;-76
2022/12/06 06:52:39;;;;;;;5.32;1.70;;;;;;;-2.05;68.12;101414.47;5101567;28;20043;-77
2022/12/06 06:55:08;;;;;;;6.43;1.98;;;;;;;-2.06;67.99;101407.56;5101354;28;20036;-78
2022/12/06 06:57:35;;;;;;;9.73;2.83;;;;;;;-2.06;67.89;101405.00;5104849;28;20437;-76
2022/12/06 07:00:02;;;;;;;4.72;1.52;;;;;;;-2.09;68.44;101404.88;5107041;28;20047;-76
2022/12/06 07:02:29;;;;;;;12.52;4.95;;;;;;;-2.09;67.92;101406.56;5097670;28;20039;-76
2022/12/06 07:04:56;;;;;;;27.55;7.68;;;;;;;-2.10;68.24;101412.50;5104164;28;20060;-76
2022/12/06 07:07:23;;;;;;;7.85;2.80;;;;;;;-2.10;68.14;101405.69;5103982;28;20503;-76
2022/12/06 07:09:50;;;;;;;7.07;2.40;;;;;;;-2.13;68.36;101403.00;5100433;28;20503;-76
2022/12/06 07:12:18;;;;;;;5.15;1.52;;;;;;;-2.12;68.05;101406.44;5104808;28;20096;-75
2022/12/06 07:14:45;;;;;;;10.30;2.60;;;;;;;-2.13;68.45;101399.59;5104117;28;20048;-76
2022/12/06 07:17:12;;;;;;;4.55;1.88;;;;;;;-2.15;68.29;101396.94;5105003;27;20043;-76
2022/12/06 07:19:38;;;;;;;2.00;1.10;;;;;;;-2.19;68.17;101387.41;5101161;28;20511;-76
2022/12/06 07:22:05;;;;;;;3.00;0.90;;;;;;;-2.15;68.19;101390.97;5097576;28;20051;-75
2022/12/06 07:24:32;;;;;;;3.00;0.82;;;;;;;-2.15;68.13;101396.94;5105053;28;20575;-75
2022/12/06 07:26:59;;;;;;;2.30;1.08;;;;;;;-2.15;68.42;101393.50;5096753;28;20051;-75
2022/12/06 07:29:27;;;;;;;2.58;0.98;;;;;;;-2.16;68.17;101390.09;5103733;28;20047;-75
2022/12/06 07:31:54;;;;;;;3.30;1.02;;;;;;;-2.17;68.41;101405.38;5102434;28;20044;-75
2022/12/06 07:34:22;;;;;;;1.58;0.80;;;;;;;-2.16;67.99;101397.75;5103740;27;20043;-76
2022/12/06 07:36:49;;;;;;;3.65;0.70;;;;;;;-2.26;68.58;101382.81;5102153;28;20048;-76
2022/12/06 07:39:15;;;;;;;1.85;0.60;;;;;;;-2.19;68.13;101394.19;5100273;28;20096;-75
2022/12/06 07:47:12;;;;;;;2.95;1.35;;;;;;;-2.17;68.15;101390.88;5102138;28;20114;-76
2022/12/06 07:49:39;;;;;;;3.72;0.80;;;;;;;-2.19;68.00;101386.50;5103311;28;20526;-76
2022/12/06 07:52:06;;;;;;;1.50;0.63;;;;;;;-2.18;68.25;101385.72;5100470;28;20051;-74
2022/12/06 07:54:32;;;;;;;2.13;0.98;;;;;;;-2.18;68.28;101385.72;5101845;28;20044;-76
2022/12/06 07:56:59;;;;;;;5.57;0.70;;;;;;;-2.20;68.38;101383.06;5100054;28;20044;-75
2022/12/06 07:59:26;;;;;;;3.60;0.90;;;;;;;-2.19;68.54;101389.06;5097997;28;20360;-76
2022/12/06 08:01:55;;;;;;;2.78;0.90;;;;;;;-2.18;68.62;101390.81;5103781;27;20144;-76
2022/12/06 08:04:22;;;;;;;5.75;0.90;;;;;;;-2.20;68.17;101385.63;5106263;28;20089;-76
2022/12/06 08:06:49;;;;;;;4.88;0.98;;;;;;;-2.22;68.63;101379.59;5100547;28;20090;-76
2022/12/06 08:09:16;;;;;;;2.47;0.90;;;;;;;-2.27;68.69;101360.59;5100831;28;20069;-76
2022/12/06 08:11:42;;;;;;;2.22;0.90;;;;;;;-2.18;68.45;101370.34;5103993;28;20051;-76
2022/12/06 08:14:11;;;;;;;2.50;0.90;;;;;;;-2.19;68.79;101369.47;5104660;28;20047;-76
2022/12/06 08:16:39;;;;;;;4.93;1.30;;;;;;;-2.18;68.89;101370.34;5107066;27;20069;-75
2022/12/06 08:19:07;;;;;;;5.10;0.75;;;;;;;-2.16;68.85;101377.28;5100644;28;20052;-76
2022/12/06 08:21:34;;;;;;;2.40;1.10;;;;;;;-2.16;68.80;101376.38;5100556;28;20062;-77
2022/12/06 08:24:02;;;;;;;5.00;1.10;;;;;;;-2.15;68.45;101378.16;5103051;28;20727;-76
2022/12/06 08:26:29;;;;;;;2.47;1.08;;;;;;;-2.14;68.37;101370.53;5103596;27;20097;-76
2022/12/06 08:28:56;;;;;;;1.83;0.95;;;;;;;-2.13;68.90;101376.56;5101416;27;20507;-75
2022/12/06 08:31:24;;;;;;;1.95;1.10;;;;;;;-2.10;68.79;101382.66;5101719;28;20047;-75
2022/12/06 08:33:51;;;;;;;1.55;0.88;;;;;;;-2.09;68.80;101378.41;5103456;28;20506;-76
2022/12/06 08:36:21;;;;;;;1.98;1.00;;;;;;;-2.16;68.51;101368.72;5109472;28;20499;-76
2022/12/06 08:38:49;;;;;;;2.20;1.40;;;;;;;-2.06;68.78;101389.66;5098016;27;20055;-76
2022/12/06 08:44:02;;;;;;;3.90;1.85;;;;;;;-2.02;69.16;101385.56;5102135;28;20058;-76
2022/12/06 08:46:30;;;;;;;1.75;1.10;;;;;;;-2.01;69.06;101376.19;5107212;27;20039;-76
2022/12/06 08:48:57;;;;;;;2.47;1.05;;;;;;;-1.99;68.95;101377.09;5098817;28;20052;-76
2022/12/06 08:51:25;;;;;;;2.95;1.63;;;;;;;-1.98;69.07;101377.19;5098476;28;20047;-76
2022/12/06 08:53:54;;;;;;;3.13;0.82;;;;;;;-2.03;69.11;101369.28;5103792;27;20070;-75
2022/12/06 08:56:21;;;;;;;2.85;0.93;;;;;;;-1.94;69.24;101367.94;5103942;28;20495;-76
2022/12/06 08:58:47;;;;;;;2.92;1.23;;;;;;;-1.93;69.28;101375.69;5102759;28;20097;-75
2022/12/06 09:01:17;;;;;;;4.05;1.33;;;;;;;-1.98;69.56;101366.06;5106000;27;20044;-77
2022/12/06 09:03:44;;;;;;;5.85;1.83;;;;;;;-1.90;69.04;101374.94;5104024;28;20474;-76
2022/12/06 09:06:11;;;;;;;6.78;1.48;;;;;;;-1.89;68.98;101372.44;5099930;28;20052;-75
2022/12/06 09:08:40;;;;;;;2.22;1.02;;;;;;;-1.86;69.16;101361.44;5099976;28;20535;-75
2022/12/06 09:11:09;;;;;;;2.20;0.88;;;;;;;-1.92;69.38;101340.72;5099761;28;20044;-76
2022/12/06 09:13:37;;;;;;;3.45;1.42;;;;;;;-1.80;69.81;101366.81;5103254;27;20066;-76
2022/12/06 09:16:06;;;;;;;1.08;0.57;;;;;;;-1.76;69.28;101362.72;5101073;28;20480;-75
2022/12/06 09:18:34;;;;;;;4.07;1.15;;;;;;;-1.75;69.37;101355.09;5098141;28;20050;-76
2022/12/06 09:21:05;;;;;;;3.05;0.98;;;;;;;-1.73;69.25;101353.47;5095072;28;20477;-76
2022/12/06 09:23:31;;;;;;;2.72;0.60;;;;;;;-1.70;69.51;101351.03;5100829;28;20089;-76
2022/12/06 09:25:59;;;;;;;1.42;0.77;;;;;;;-1.66;69.45;101344.34;5102663;28;20093;-75
2022/12/06 09:28:26;;;;;;;3.90;0.90;;;;;;;-1.66;69.18;101340.09;5100627;27;20044;-76
2022/12/06 09:30:53;;;;;;;3.22;0.85;;;;;;;-1.62;69.39;101334.28;5096863;27;20044;-76
2022/12/06 09:33:21;;;;;;;4.63;1.02;;;;;;;-1.59;69.33;101342.09;5099435;28;20040;-76
2022/12/06 09:35:50;;;;;;;2.80;0.77;;;;;;;-1.56;69.17;101333.66;5102487;28;20048;-75
2022/12/06 09:38:17;;;;;;;7.13;1.65;;;;;;;-1.52;69.12;101334.63;5101440;28;20044;-76
2022/12/06 09:40:53;;;;;;;1.35;0.60;;;;;;;-1.49;69.48;101327.06;5101152;28;20450;-76
2022/12/06 09:43:37;;;;;;;2.45;0.85;;;;;;;-1.46;69.49;101327.19;5106365;27;20101;-75
2022/12/06 09:46:39;;;;;;;4.30;0.80;;;;;;;-1.42;69.74;101334.19;5100128;28;20048;-76
2022/12/06 09:49:28;;;;;;;1.60;0.85;;;;;;;-1.42;69.21;101313.69;5101474;28;20051;-75
2022/12/06 09:52:29;;;;;;;3.42;0.75;;;;;;;-1.41;69.72;101312.88;5102102;28;20052;-76
2022/12/06 09:55:10;;;;;;;2.05;0.85;;;;;;;-1.33;69.08;101316.63;5096524;28;20096;-76
2022/12/06 09:57:42;;;;;;;3.78;0.73;;;;;;;-1.30;68.99;101311.59;5101693;27;20088;-76
2022/12/06 10:00:13;;;;;;;1.40;0.70;;;;;;;-1.29;69.56;101313.34;5100215;28;20093;-76
2022/12/06 10:03:01;;;;;;;2.78;0.60;;;;;;;-1.37;69.60;101290.00;5103637;28;20596;-76
2022/12/06 10:05:37;;;;;;;6.88;0.70;;;;;;;-1.25;69.42;101289.59;5105932;28;20132;-76
2022/12/06 10:08:20;;;;;;;3.80;1.35;;;;;;;-1.24;69.20;101288.75;5103443;28;20705;-76
2022/12/06 10:10:56;;;;;;;1.90;0.63;;;;;;;-1.16;69.17;101292.50;5104556;28;20109;-76
2022/12/06 10:13:35;;;;;;;3.92;0.82;;;;;;;-1.14;69.30;101290.88;5099917;28;20058;-75
2022/12/06 10:16:16;;;;;;;4.07;1.48;;;;;;;-1.10;69.13;101288.41;5099422;28;20208;-76
2022/12/06 10:19:02;;;;;;;5.30;0.90;;;;;;;-1.10;69.11;101280.72;5109525;28;20040;-75
2022/12/06 10:21:42;;;;;;;3.70;1.23;;;;;;;-1.04;69.31;101283.50;5102782;28;20449;-76
2022/12/06 10:24:19;;;;;;;8.48;1.10;;;;;;;-1.03;69.22;101287.81;5098715;28;20078;-75
2022/12/06 10:26:49;;;;;;;2.80;0.85;;;;;;;-0.99;69.53;101284.56;5101204;28;20097;-76
2022/12/06 10:29:21;;;;;;;4.28;1.27;;;;;;;-0.95;68.86;101281.28;5105406;28;20457;-75
2022/12/06 10:31:56;;;;;;;3.25;1.08;;;;;;;-0.98;69.03;101265.78;5098926;28;20104;-75
2022/12/06 10:34:37;;;;;;;1.08;0.57;;;;;;;-0.90;69.72;101269.50;5103192;28;20123;-76
2022/12/06 10:37:16;;;;;;;2.25;1.17;;;;;;;-0.88;69.26;101267.88;5100671;28;20044;-76
2022/12/06 10:39:49;;;;;;;2.20;1.00;;;;;;;-0.87;69.17;101268.72;5099791;28;20516;-77
2022/12/06 10:42:28;;;;;;;2.22;1.30;;;;;;;-0.83;69.42;101268.88;5101687;28;20048;-75
2022/12/06 10:44:59;;;;;;;3.83;1.42;;;;;;;-0.81;68.99;101269.81;5099201;28;20077;-76
2022/12/06 10:47:32;;;;;;;3.60;1.65;;;;;;;-0.85;69.15;101262.84;5101587;28;20453;-75
2022/12/06 10:50:05;;;;;;;3.72;0.93;;;;;;;-0.74;69.10;101273.47;5096287;28;20124;-76
2022/12/06 10:52:40;;;;;;;6.00;1.60;;;;;;;-0.71;69.09;101286.44;5102181;28;20069;-76
2022/12/06 10:55:22;;;;;;;2.85;0.50;;;;;;;-0.70;68.76;101271.06;5099708;28;20547;-77
2022/12/06 10:57:55;;;;;;;1.13;0.50;;;;;;;-0.70;69.21;101253.13;5096796;28;20097;-76
2022/12/06 11:00:24;;;;;;;1.75;0.60;;;;;;;-0.68;68.78;101246.34;5099412;28;20044;-76
2022/12/06 11:02:59;;;;;;;2.78;0.65;;;;;;;-0.64;68.71;101249.88;5101433;28;20408;-76
2022/12/06 11:05:32;;;;;;;1.60;0.50;;;;;;;-0.62;68.98;101245.69;5097863;28;20051;-76
2022/12/06 11:08:07;;;;;;;4.20;1.10;;;;;;;-0.59;69.09;101244.94;5095235;28;20863;-76
2022/12/06 11:10:35;;;;;;;4.47;0.57;;;;;;;-0.57;69.18;101243.25;5102612;28;20048;-75
2022/12/06 11:13:15;;;;;;;3.00;0.70;;;;;;;-0.80;68.90;101199.72;5104262;28;20101;-76
2022/12/06 11:15:48;;;;;;;7.95;0.80;;;;;;;-0.64;69.03;101220.81;5102123;28;20052;-76
2022/12/06 11:18:18;;;;;;;2.65;0.63;;;;;;;-0.53;68.71;101229.72;5097750;28;20052;-75
2022/12/06 11:20:49;;;;;;;2.28;0.52;;;;;;;-0.51;68.79;101238.38;5099681;28;20044;-76
2022/12/06 11:23:23;;;;;;;1.88;0.50;;;;;;;-0.50;68.72;101240.09;5100113;28;20040;-76
2022/12/06 11:26:02;;;;;;;4.15;0.70;;;;;;;-0.55;68.35;101219.41;5094009;28;20035;-76
2022/12/06 11:28:36;;;;;;;1.35;0.47;;;;;;;-0.46;69.09;101227.44;5094343;28;20035;-75
2022/12/06 11:31:12;;;;;;;6.47;0.60;;;;;;;-0.48;68.88;101223.94;5091117;27;20531;-75
2022/12/06 11:33:41;;;;;;;2.25;0.60;;;;;;;-0.42;68.37;101227.53;5099544;27;20131;-75
2022/12/06 11:36:08;;;;;;;1.63;0.38;;;;;;;-0.41;68.62;101222.44;5098497;28;20051;-76
2022/12/06 11:38:39;;;;;;;2.05;0.50;;;;;;;-0.39;68.82;101219.94;5097144;28;20040;-75
2022/12/06 11:41:10;;;;;;;1.90;0.50;;;;;;;-0.39;68.50;101223.38;5102436;28;20117;-76
2022/12/06 11:43:38;;;;;;;4.30;0.60;;;;;;;-0.37;68.40;101216.59;5101400;28;20104;-76
2022/12/06 11:46:06;;;;;;;4.63;1.17;;;;;;;-0.35;68.72;101214.94;5101478;28;20040;-76
2022/12/06 11:48:36;;;;;;;2.45;0.43;;;;;;;-0.34;68.23;101214.13;5092186;28;20101;-76
2022/12/06 11:51:17;;;;;;;2.08;0.43;;;;;;;-0.34;68.56;101201.31;5100713;28;20052;-75
2022/12/06 11:53:55;;;;;;;1.52;0.45;;;;;;;-0.32;68.29;101199.63;5097398;28;20425;-79
2022/12/06 11:56:25;;;;;;;3.38;0.50;;;;;;;-0.31;68.28;101196.25;5102747;28;20326;-75
2022/12/06 11:59:06;;;;;;;1.38;0.30;;;;;;;-0.36;68.62;101192.66;5095554;28;20052;-75
2022/12/06 12:01:43;;;;;;;1.25;0.57;;;;;;;-0.30;68.01;101195.44;5101303;28;21182;-75
2022/12/06 12:04:30;;;;;;;1.55;0.50;;;;;;;-0.30;68.54;101198.00;5096616;28;20676;-76
2022/12/06 12:07:02;;;;;;;2.85;0.75;;;;;;;-0.30;68.76;101202.25;5098113;28;20097;-75